Time;durP1;ratioP1;P1;durP2;ratioP2;P2;SDS_P1;SDS_P2;PMS_P1;PMS_P2;Temp;Humidity;BMP_temperature;BMP_pressure;BME280_temperature;BME280_humidity;BME280_pressure;Samples;Min_cycle;Max_cycle;Signal;HPM_P1;HPM_P2
2023/12/28 00:01:43;;;;;;;11.32;8.00;;;;;;;3.55;73.04;95816.69;5022481;28;20022;-68
2023/12/28 00:04:08;;;;;;;15.23;8.48;;;;;;;3.50;72.80;95816.84;5009654;28;20034;-68
2023/12/28 00:06:34;;;;;;;10.68;7.07;;;;;;;3.07;73.58;95815.09;5008922;28;20503;-68
2023/12/28 00:09:00;;;;;;;7.82;5.45;;;;;;;3.24;72.66;95810.16;5007754;28;20065;-67
2023/12/28 00:11:26;;;;;;;8.45;5.82;;;;;;;3.27;72.31;95822.06;5006625;28;20500;-68
2023/12/28 00:13:51;;;;;;;12.85;6.75;;;;;;;3.15;71.71;95831.06;5006177;28;20053;-68
2023/12/28 00:16:16;;;;;;;11.30;6.50;;;;;;;2.68;72.21;95790.84;5009305;28;20044;-67
2023/12/28 00:18:42;;;;;;;10.93;7.55;;;;;;;2.79;72.55;95828.13;5008425;28;20026;-68
2023/12/28 00:21:07;;;;;;;14.10;7.22;;;;;;;2.73;72.61;95836.03;5006718;28;20038;-68
2023/12/28 00:23:33;;;;;;;12.23;7.82;;;;;;;2.71;72.59;95832.69;5009540;28;20022;-67
2023/12/28 00:25:58;;;;;;;12.70;8.80;;;;;;;2.59;72.72;95837.38;4991412;28;20436;-68
2023/12/28 00:28:24;;;;;;;13.40;7.78;;;;;;;2.53;72.73;95849.56;4988490;28;20451;-67
2023/12/28 00:30:49;;;;;;;20.80;13.05;;;;;;;2.09;73.07;95793.78;5005850;28;20104;-67
2023/12/28 00:33:14;;;;;;;15.73;9.43;;;;;;;2.23;73.65;95834.34;4986156;28;20031;-68
2023/12/28 00:35:40;;;;;;;12.13;7.47;;;;;;;2.03;74.37;95829.88;5007602;28;20038;-67
2023/12/28 00:38:05;;;;;;;10.80;6.03;;;;;;;1.96;74.59;95834.38;5003667;28;20030;-68
2023/12/28 00:40:31;;;;;;;13.52;6.68;;;;;;;1.62;75.40;95798.75;5004664;28;20512;-67
2023/12/28 00:42:56;;;;;;;9.63;6.53;;;;;;;1.85;74.36;95838.19;5004191;28;20041;-68
2023/12/28 00:45:21;;;;;;;11.05;7.03;;;;;;;1.73;74.49;95832.56;4988747;28;20046;-67
2023/12/28 00:47:47;;;;;;;10.88;6.10;;;;;;;1.71;74.48;95829.19;5006441;28;20034;-67
2023/12/28 00:50:14;;;;;;;11.60;6.80;;;;;;;1.81;73.99;95839.13;5007550;28;20049;-67
2023/12/28 00:52:40;;;;;;;10.35;6.90;;;;;;;1.72;74.25;95841.09;5007054;28;20273;-68
2023/12/28 00:55:06;;;;;;;10.70;6.75;;;;;;;1.65;75.04;95842.22;5009577;28;20091;-68
2023/12/28 00:57:32;;;;;;;11.27;6.55;;;;;;;1.56;75.31;95850.16;5005775;28;20120;-68
2023/12/28 00:59:57;;;;;;;9.07;5.38;;;;;;;1.73;75.50;95853.06;5007045;28;20033;-68
2023/12/28 01:02:22;;;;;;;9.40;5.55;;;;;;;1.44;75.69;95837.75;5006388;28;20049;-68
2023/12/28 01:04:48;;;;;;;10.32;5.95;;;;;;;1.37;77.12;95846.50;5005726;28;20030;-68
2023/12/28 01:07:14;;;;;;;9.15;5.68;;;;;;;1.32;77.91;95859.44;5006200;28;20136;-68
2023/12/28 01:09:40;;;;;;;8.50;5.43;;;;;;;1.28;79.10;95857.84;5003222;28;20025;-68
2023/12/28 01:12:06;;;;;;;10.82;5.90;;;;;;;1.39;79.23;95850.69;5007477;28;20477;-68
2023/12/28 01:14:31;;;;;;;10.50;5.90;;;;;;;1.67;79.23;95845.56;5006364;28;20288;-67
2023/12/28 01:16:57;;;;;;;6.95;5.57;;;;;;;1.69;78.68;95838.66;5008492;28;20487;-67
2023/12/28 01:19:23;;;;;;;8.02;5.72;;;;;;;1.79;78.70;95845.16;5007086;28;20423;-67
2023/12/28 01:21:49;;;;;;;9.90;5.53;;;;;;;1.91;78.76;95854.19;5006442;28;20025;-68
2023/12/28 01:24:14;;;;;;;9.88;6.15;;;;;;;1.91;78.33;95850.78;5006412;28;20030;-67
2023/12/28 01:26:40;;;;;;;9.23;5.78;;;;;;;1.95;78.33;95849.78;5007967;28;20646;-67
2023/12/28 01:29:05;;;;;;;9.65;5.13;;;;;;;1.96;78.25;95839.50;5006129;28;20100;-68
2023/12/28 01:31:30;;;;;;;9.35;5.70;;;;;;;1.90;78.32;95841.44;5006079;28;20026;-67
2023/12/28 01:33:56;;;;;;;8.23;5.25;;;;;;;1.98;78.24;95840.28;5007584;28;20499;-68
2023/12/28 01:36:21;;;;;;;7.85;5.60;;;;;;;2.12;77.96;95846.69;5006791;28;20030;-67
2023/12/28 01:38:47;;;;;;;9.90;5.53;;;;;;;2.12;77.94;95844.13;5004317;28;20100;-68
2023/12/28 01:41:13;;;;;;;9.80;5.60;;;;;;;2.13;77.98;95840.66;4988420;28;20518;-68
2023/12/28 01:43:39;;;;;;;8.23;5.20;;;;;;;2.23;77.42;95835.19;5007610;28;20077;-67
2023/12/28 01:46:07;;;;;;;10.02;5.65;;;;;;;2.23;77.13;95827.50;4990652;28;20117;-68
2023/12/28 01:48:33;;;;;;;9.02;5.32;;;;;;;2.24;76.76;95831.72;4974383;28;20034;-67
2023/12/28 01:50:58;;;;;;;8.85;5.28;;;;;;;2.31;76.41;95816.94;5005147;28;20025;-67
2023/12/28 01:53:24;;;;;;;6.97;5.15;;;;;;;2.33;76.14;95819.47;4990047;28;20092;-67
2023/12/28 01:55:49;;;;;;;8.80;5.72;;;;;;;2.38;76.01;95825.28;5007427;28;20025;-67
2023/12/28 01:58:14;;;;;;;11.10;5.30;;;;;;;2.32;76.35;95823.78;5004159;28;20037;-67
2023/12/28 02:00:40;;;;;;;7.95;4.60;;;;;;;2.29;76.30;95829.00;4989437;28;20404;-68
2023/12/28 02:03:06;;;;;;;7.85;5.30;;;;;;;2.27;76.69;95840.19;5000633;28;20038;-67
2023/12/28 02:05:32;;;;;;;8.30;5.10;;;;;;;2.31;76.23;95809.25;4973645;28;20523;-68
2023/12/28 02:07:58;;;;;;;7.05;5.10;;;;;;;2.32;76.70;95817.81;5005945;28;20038;-68
2023/12/28 02:10:23;;;;;;;9.70;4.78;;;;;;;2.38;76.78;95827.84;5005921;28;20500;-67
2023/12/28 02:12:49;;;;;;;9.38;5.07;;;;;;;2.38;77.07;95825.28;5005478;28;20054;-68
2023/12/28 02:15:15;;;;;;;8.57;4.97;;;;;;;2.48;76.92;95831.78;5007471;28;20022;-68
2023/12/28 02:17:47;;;;;;;8.70;4.93;;;;;;;2.38;77.14;95825.28;4988833;28;20088;-67
2023/12/28 02:20:13;;;;;;;7.55;4.78;;;;;;;2.29;76.60;95821.31;4983931;28;20041;-68
2023/12/28 02:22:40;;;;;;;9.82;5.38;;;;;;;2.45;75.64;95834.41;4987649;28;20034;-68
2023/12/28 02:25:06;;;;;;;8.98;4.95;;;;;;;2.35;75.57;95831.34;5007182;28;20037;-68
2023/12/28 02:27:33;;;;;;;8.82;5.43;;;;;;;2.25;75.83;95827.41;5004545;28;20054;-68
2023/12/28 02:29:59;;;;;;;8.85;5.20;;;;;;;2.15;75.64;95821.78;5005664;28;20519;-68
2023/12/28 02:32:32;;;;;;;7.05;5.35;;;;;;;2.08;76.75;95824.59;5004167;28;20042;-68
2023/12/28 02:35:01;;;;;;;6.53;4.75;;;;;;;2.21;75.26;95819.00;5005872;28;20520;-68
2023/12/28 02:37:26;;;;;;;21.42;14.23;;;;;;;2.23;75.26;95819.78;4972943;28;20103;-68
2023/12/28 02:39:52;;;;;;;14.70;11.13;;;;;;;1.81;76.46;95823.78;4984747;28;20029;-68
2023/12/28 02:42:17;;;;;;;15.32;10.68;;;;;;;1.73;76.09;95827.44;4968222;28;20046;-68
2023/12/28 02:44:43;;;;;;;23.00;16.80;;;;;;;1.55;75.98;95828.00;5004270;28;20037;-68
2023/12/28 02:47:08;;;;;;;17.88;12.43;;;;;;;1.43;77.46;95830.97;5005187;28;20046;-68
2023/12/28 02:49:34;;;;;;;19.90;13.68;;;;;;;1.06;76.37;95781.72;5005765;28;20030;-68
2023/12/28 02:51:59;;;;;;;21.33;13.65;;;;;;;1.38;76.13;95835.38;5005616;28;20082;-67
2023/12/28 02:54:24;;;;;;;17.63;12.00;;;;;;;1.24;76.87;95817.88;5005732;28;20022;-68
2023/12/28 02:56:50;;;;;;;17.25;11.75;;;;;;;1.22;76.24;95835.81;4987813;28;20037;-68
2023/12/28 02:59:15;;;;;;;10.32;8.05;;;;;;;1.21;77.21;95831.59;5005468;28;20472;-67
2023/12/28 03:01:41;;;;;;;8.98;5.45;;;;;;;1.06;76.86;95817.53;5005093;28;20034;-68
2023/12/28 03:04:06;;;;;;;11.65;6.65;;;;;;;1.04;77.79;95816.75;4988367;28;20038;-68
2023/12/28 03:06:31;;;;;;;9.82;5.75;;;;;;;0.88;78.15;95775.41;5005518;28;20026;-68
2023/12/28 03:08:57;;;;;;;10.27;6.18;;;;;;;1.30;78.34;95807.44;5005831;28;20034;-68
2023/12/28 03:11:22;;;;;;;7.10;4.90;;;;;;;1.28;78.22;95806.66;5003710;28;20049;-67
2023/12/28 03:13:48;;;;;;;9.27;5.45;;;;;;;1.33;78.16;95795.38;5003331;28;20049;-68
2023/12/28 03:16:13;;;;;;;10.02;5.57;;;;;;;1.36;78.12;95796.16;5008944;28;20030;-67
2023/12/28 03:18:39;;;;;;;8.38;5.72;;;;;;;1.27;78.22;95787.88;4976641;28;20038;-68
2023/12/28 03:21:04;;;;;;;12.38;6.20;;;;;;;1.42;77.20;95789.16;5008294;28;20038;-68
2023/12/28 03:23:30;;;;;;;18.48;10.23;;;;;;;1.43;78.79;95798.50;5006123;28;20045;-68
2023/12/28 03:25:55;;;;;;;11.45;7.32;;;;;;;1.41;78.38;95794.31;4992692;28;20030;-68
2023/12/28 03:28:21;;;;;;;12.52;7.10;;;;;;;1.49;78.77;95807.72;5009688;28;20417;-68
2023/12/28 03:30:47;;;;;;;11.88;8.15;;;;;;;1.60;78.43;95797.13;5008790;28;20034;-68
2023/12/28 03:33:12;;;;;;;13.43;7.90;;;;;;;1.44;78.70;95800.16;5004565;28;20038;-68
2023/12/28 03:35:37;;;;;;;7.88;5.65;;;;;;;1.34;78.31;95798.78;5008897;28;20029;-68
2023/12/28 03:38:03;;;;;;;9.13;5.90;;;;;;;1.47;77.45;95794.13;5010180;28;20041;-68
2023/12/28 03:40:28;;;;;;;8.05;5.38;;;;;;;1.41;77.75;95810.50;5008308;28;20034;-67
2023/12/28 03:42:54;;;;;;;9.70;5.45;;;;;;;1.56;77.10;95819.41;5006610;28;20088;-68
2023/12/28 03:45:19;;;;;;;9.32;5.00;;;;;;;1.52;76.84;95839.19;5009813;28;20038;-67
2023/12/28 03:47:45;;;;;;;8.35;5.82;;;;;;;1.39;77.32;95827.63;5010072;28;20036;-67
2023/12/28 03:50:10;;;;;;;9.05;5.53;;;;;;;1.44;76.67;95836.00;4992205;28;20549;-67
2023/12/28 03:52:36;;;;;;;7.93;5.60;;;;;;;1.44;75.38;95841.13;5007981;28;20038;-68
2023/12/28 03:55:01;;;;;;;10.95;6.70;;;;;;;1.16;76.74;95843.69;5007678;28;20088;-68
2023/12/28 03:57:26;;;;;;;9.38;5.68;;;;;;;1.05;76.88;95851.69;5002774;28;20037;-68
2023/12/28 03:59:53;;;;;;;10.10;5.93;;;;;;;0.98;77.30;95850.19;5007865;28;20026;-68
2023/12/28 04:02:19;;;;;;;9.80;5.97;;;;;;;1.01;76.95;95859.50;5005025;28;20189;-68
2023/12/28 04:04:44;;;;;;;8.55;5.60;;;;;;;0.84;77.74;95860.81;5007508;28;20150;-68
2023/12/28 04:07:10;;;;;;;9.55;5.82;;;;;;;0.77;78.64;95861.03;5009896;28;20381;-68
2023/12/28 04:09:35;;;;;;;9.15;5.57;;;;;;;0.89;78.21;95861.53;5003899;28;20034;-68
2023/12/28 04:12:01;;;;;;;11.93;5.65;;;;;;;0.96;78.06;95849.41;5007263;28;20079;-68
2023/12/28 04:14:26;;;;;;;8.35;5.40;;;;;;;1.01;77.89;95846.72;4975090;28;20466;-68
2023/12/28 04:16:51;;;;;;;7.55;5.00;;;;;;;1.04;77.58;95836.38;5008235;28;20484;-67
2023/12/28 04:19:17;;;;;;;8.15;4.97;;;;;;;0.92;77.82;95837.59;5008286;28;20484;-68
2023/12/28 04:21:43;;;;;;;8.85;5.05;;;;;;;0.95;77.64;95831.53;5006758;28;20081;-68
2023/12/28 04:24:09;;;;;;;7.72;5.32;;;;;;;1.08;77.58;95848.19;4980196;28;20045;-68
2023/12/28 04:26:34;;;;;;;10.95;5.32;;;;;;;1.06;77.32;95832.06;4990334;28;20045;-68
2023/12/28 04:29:00;;;;;;;6.35;4.80;;;;;;;1.03;77.28;95835.56;5007368;28;20049;-68
2023/12/28 04:31:25;;;;;;;9.93;5.53;;;;;;;1.01;77.63;95831.38;4985984;28;20409;-68
2023/12/28 04:33:51;;;;;;;12.43;6.18;;;;;;;1.01;77.74;95836.47;4990342;28;20038;-68
2023/12/28 04:36:16;;;;;;;10.48;5.47;;;;;;;0.98;78.03;95834.00;5009333;28;20037;-68
2023/12/28 04:38:41;;;;;;;8.75;5.35;;;;;;;0.81;78.62;95814.88;5006382;28;20030;-69
2023/12/28 04:41:09;;;;;;;6.97;4.78;;;;;;;0.97;77.73;95835.72;5004833;28;20049;-68
2023/12/28 04:43:34;;;;;;;7.47;4.75;;;;;;;0.89;77.98;95835.09;5006667;28;20042;-68
2023/12/28 04:46:04;;;;;;;7.40;4.93;;;;;;;0.85;78.06;95819.00;4991134;28;20018;-69
2023/12/28 04:48:29;;;;;;;7.55;5.07;;;;;;;0.82;77.76;95821.66;4990132;28;20040;-69
2023/12/28 04:50:54;;;;;;;11.63;7.75;;;;;;;0.93;77.57;95831.56;5005392;28;20033;-69
2023/12/28 04:53:20;;;;;;;7.85;4.63;;;;;;;1.05;76.88;95835.50;5007005;28;20061;-70
2023/12/28 04:55:45;;;;;;;8.48;5.32;;;;;;;0.97;76.82;95833.16;5007355;28;20026;-69
2023/12/28 04:58:12;;;;;;;7.22;4.95;;;;;;;1.06;77.29;95832.06;5008692;28;20489;-69
2023/12/28 05:00:37;;;;;;;7.60;5.47;;;;;;;0.93;77.59;95833.31;5004749;28;20042;-69
2023/12/28 05:03:03;;;;;;;7.55;5.57;;;;;;;0.90;77.90;95834.22;5003708;28;20056;-69
2023/12/28 05:05:28;;;;;;;6.72;4.47;;;;;;;1.06;77.52;95832.06;5005487;28;20022;-69
2023/12/28 05:07:53;;;;;;;5.95;4.28;;;;;;;0.97;77.37;95814.41;5003138;28;20050;-69
2023/12/28 05:10:19;;;;;;;6.45;4.15;;;;;;;1.06;77.09;95832.91;5004387;28;20026;-69
2023/12/28 05:12:44;;;;;;;7.63;4.43;;;;;;;1.22;76.18;95838.38;5006572;28;20040;-69
2023/12/28 05:15:10;;;;;;;10.07;4.55;;;;;;;1.19;76.03;95835.91;4991108;28;20022;-69
2023/12/28 05:17:35;;;;;;;6.85;4.70;;;;;;;1.21;76.45;95841.00;4988159;28;20053;-68
2023/12/28 05:20:00;;;;;;;7.88;4.30;;;;;;;1.29;75.93;95839.88;5007781;28;20025;-69
2023/12/28 05:22:26;;;;;;;9.63;5.70;;;;;;;1.39;76.37;95844.72;4988805;28;20037;-69
2023/12/28 05:24:51;;;;;;;7.82;5.05;;;;;;;1.33;76.46;95851.69;5004608;28;20432;-70
2023/12/28 05:27:17;;;;;;;9.55;5.25;;;;;;;1.05;76.40;95845.72;5008257;28;20046;-69
2023/12/28 05:29:42;;;;;;;7.20;4.68;;;;;;;1.28;75.29;95848.47;5004730;28;20620;-69
2023/12/28 05:32:08;;;;;;;6.25;4.45;;;;;;;1.34;74.81;95855.97;5004381;28;20037;-69
2023/12/28 05:34:33;;;;;;;7.05;4.53;;;;;;;1.02;74.81;95845.81;5005994;28;20037;-69
2023/12/28 05:36:58;;;;;;;12.48;7.35;;;;;;;1.10;75.28;95849.00;5004436;28;20033;-69
2023/12/28 05:39:24;;;;;;;8.90;5.05;;;;;;;0.73;75.27;95829.59;5000859;28;20092;-69
2023/12/28 05:41:50;;;;;;;6.10;4.45;;;;;;;0.81;75.55;95867.75;5006226;28;20503;-69
2023/12/28 05:44:16;;;;;;;7.80;4.45;;;;;;;0.68;75.82;95854.47;4991118;28;20132;-69
2023/12/28 05:46:42;;;;;;;12.10;7.18;;;;;;;0.57;75.57;95856.47;4990113;28;20446;-69
2023/12/28 05:49:07;;;;;;;14.25;8.15;;;;;;;0.66;77.27;95862.16;5004501;28;20034;-69
2023/12/28 05:51:41;;;;;;;12.38;7.10;;;;;;;0.59;76.94;95865.78;4985349;28;20084;-69
2023/12/28 05:54:07;;;;;;;20.15;10.10;;;;;;;0.53;77.32;95859.97;5000191;28;20100;-69
2023/12/28 05:56:33;;;;;;;15.40;9.57;;;;;;;0.56;77.16;95853.06;4989562;28;20041;-69
2023/12/28 05:58:58;;;;;;;18.98;11.80;;;;;;;0.64;78.13;95869.06;5004528;28;20463;-69
2023/12/28 06:01:24;;;;;;;19.13;11.85;;;;;;;0.46;79.48;95874.66;5004110;28;20037;-68
2023/12/28 06:03:50;;;;;;;17.65;11.55;;;;;;;0.54;79.67;95877.00;5003157;28;20027;-69
2023/12/28 06:06:15;;;;;;;16.45;10.63;;;;;;;0.46;79.50;95879.75;5007080;28;20500;-70
2023/12/28 06:08:41;;;;;;;10.40;7.28;;;;;;;0.41;79.12;95887.53;5003611;28;20060;-69
2023/12/28 06:11:06;;;;;;;15.15;8.93;;;;;;;0.25;79.10;95870.91;5005145;28;20080;-69
2023/12/28 06:13:31;;;;;;;16.15;11.57;;;;;;;0.33;79.87;95876.69;5007115;28;20053;-69
2023/12/28 06:15:57;;;;;;;18.10;10.73;;;;;;;0.46;79.43;95863.59;5006796;28;20352;-69
2023/12/28 06:18:22;;;;;;;19.83;13.48;;;;;;;0.49;78.79;95868.63;5002100;28;20030;-69
2023/12/28 06:20:48;;;;;;;17.40;12.65;;;;;;;0.32;79.35;95862.22;5005939;28;20037;-69
2023/12/28 06:23:13;;;;;;;18.15;11.50;;;;;;;0.20;80.29;95857.44;5004614;28;20026;-69
2023/12/28 06:25:38;;;;;;;18.48;12.27;;;;;;;0.24;80.46;95874.38;4972145;28;20463;-68
2023/12/28 06:28:04;;;;;;;18.27;11.13;;;;;;;0.20;81.34;95883.84;4988758;28;20570;-69
2023/12/28 06:30:29;;;;;;;18.67;11.20;;;;;;;0.32;81.21;95884.41;5004014;28;20539;-69
2023/12/28 06:32:55;;;;;;;16.42;11.35;;;;;;;0.18;80.64;95884.75;5004706;28;20045;-69
2023/12/28 06:35:20;;;;;;;17.75;12.23;;;;;;;0.35;80.24;95882.59;5005721;28;20026;-69
2023/12/28 06:37:46;;;;;;;16.17;9.88;;;;;;;0.34;79.90;95877.53;5006387;28;20030;-69
2023/12/28 06:40:11;;;;;;;9.55;6.47;;;;;;;0.54;79.36;95892.34;5006859;28;20041;-68
2023/12/28 06:42:37;;;;;;;7.47;4.30;;;;;;;0.65;78.25;95895.47;5002068;28;20124;-69
2023/12/28 06:45:03;;;;;;;12.48;6.03;;;;;;;0.47;78.65;95888.28;5003930;28;20033;-69
2023/12/28 06:47:28;;;;;;;14.30;7.18;;;;;;;0.20;78.92;95894.06;4989621;28;20045;-69
2023/12/28 06:49:53;;;;;;;11.23;7.93;;;;;;;0.44;77.32;95907.91;4985940;28;20488;-69
2023/12/28 06:52:19;;;;;;;17.20;12.18;;;;;;;0.39;77.48;95904.66;5008632;28;20033;-69
2023/12/28 06:54:44;;;;;;;27.67;18.67;;;;;;;0.39;77.78;95904.66;5010216;28;20525;-69
2023/12/28 06:57:10;;;;;;;17.98;12.35;;;;;;;0.40;78.75;95900.38;5010295;28;20061;-69
2023/12/28 06:59:35;;;;;;;20.52;14.38;;;;;;;0.41;77.49;95872.22;5008762;28;20038;-68
2023/12/28 07:02:00;;;;;;;35.85;23.27;;;;;;;0.19;77.88;95858.31;5009036;28;20026;-69
2023/12/28 07:04:29;;;;;;;33.08;23.15;;;;;;;0.35;77.80;95892.00;5006337;28;20022;-69
2023/12/28 07:06:54;;;;;;;31.08;22.17;;;;;;;0.35;77.27;95894.53;4993504;28;20048;-69
2023/12/28 07:09:20;;;;;;;31.13;21.15;;;;;;;0.32;77.86;95908.25;4992241;28;20116;-68
2023/12/28 07:11:45;;;;;;;41.20;27.63;;;;;;;0.37;77.09;95908.97;5008412;28;20041;-68
2023/12/28 07:14:11;;;;;;;39.85;24.27;;;;;;;0.36;76.79;95898.75;5008486;28;20046;-69
2023/12/28 07:16:36;;;;;;;41.95;25.95;;;;;;;0.36;77.55;95902.19;5010835;28;20401;-68
2023/12/28 07:19:03;;;;;;;47.08;29.25;;;;;;;0.42;77.92;95896.91;5006385;28;20034;-69
2023/12/28 07:21:28;;;;;;;47.75;29.08;;;;;;;0.36;77.66;95891.09;5007060;28;20034;-68
2023/12/28 07:23:54;;;;;;;49.03;29.95;;;;;;;0.55;77.17;95896.56;5008971;28;20034;-69
2023/12/28 07:26:20;;;;;;;40.28;24.73;;;;;;;0.53;76.89;95894.09;5009091;28;20022;-68
2023/12/28 07:28:48;;;;;;;41.03;22.92;;;;;;;0.20;77.33;95873.63;5008786;28;20030;-68
2023/12/28 07:31:25;;;;;;;20.10;11.35;;;;;;;0.48;77.40;95893.34;5010470;28;20696;-69
2023/12/28 07:33:51;;;;;;;9.48;5.20;;;;;;;0.60;76.94;95887.06;5004768;28;20040;-68
2023/12/28 07:36:17;;;;;;;7.10;4.22;;;;;;;0.64;76.70;95893.78;4997120;28;20049;-68
2023/12/28 07:38:43;;;;;;;5.50;4.00;;;;;;;0.49;77.37;95883.97;5011990;28;20545;-69
2023/12/28 07:41:14;;;;;;;5.60;3.67;;;;;;;0.52;77.58;95900.06;4978513;28;20404;-71
2023/12/28 07:43:40;;;;;;;7.60;4.78;;;;;;;0.52;78.41;95904.34;4994186;28;20030;-68
2023/12/28 07:46:05;;;;;;;5.75;3.95;;;;;;;0.50;78.85;95900.97;5003429;28;20037;-68
2023/12/28 07:48:31;;;;;;;5.50;3.47;;;;;;;0.55;78.01;95910.19;5011969;28;20455;-69
2023/12/28 07:50:57;;;;;;;5.95;3.92;;;;;;;0.57;78.92;95907.63;5011900;28;20488;-70
2023/12/28 07:53:22;;;;;;;7.20;4.28;;;;;;;0.69;78.36;95897.03;4994042;28;20117;-69
2023/12/28 07:55:48;;;;;;;7.85;4.25;;;;;;;0.77;78.54;95901.97;5011425;28;20033;-69
2023/12/28 07:58:14;;;;;;;6.88;4.10;;;;;;;0.81;78.58;95889.06;4978343;28;20149;-70
2023/12/28 08:00:39;;;;;;;8.68;5.22;;;;;;;1.05;78.16;95907.16;5004887;28;20026;-68
2023/12/28 08:03:05;;;;;;;13.88;8.50;;;;;;;1.18;78.45;95898.25;5007922;28;20398;-70
2023/12/28 08:05:30;;;;;;;16.52;8.00;;;;;;;1.36;77.84;95893.47;4992287;28;20547;-69
2023/12/28 08:07:55;;;;;;;7.47;4.53;;;;;;;1.35;77.11;95872.16;5008527;28;20038;-69
2023/12/28 08:10:21;;;;;;;21.35;12.63;;;;;;;1.65;77.41;95895.16;5011833;28;20030;-68
2023/12/28 08:12:46;;;;;;;26.67;16.55;;;;;;;1.71;78.01;95890.69;5011319;28;20042;-70
2023/12/28 08:15:12;;;;;;;38.83;22.58;;;;;;;1.85;78.40;95891.97;5011491;28;20022;-69
2023/12/28 08:17:37;;;;;;;20.45;11.88;;;;;;;2.06;77.51;95901.53;5012616;28;20038;-69
2023/12/28 08:20:04;;;;;;;12.10;8.45;;;;;;;2.22;76.27;95900.16;4974202;28;20046;-70
2023/12/28 08:22:31;;;;;;;47.25;26.42;;;;;;;2.32;77.12;95900.69;5009501;28;20125;-69
2023/12/28 08:24:57;;;;;;;55.60;32.85;;;;;;;2.39;77.06;95897.03;5011658;28;20014;-70
2023/12/28 08:27:22;;;;;;;61.97;35.72;;;;;;;2.39;77.25;95883.38;5001010;28;20040;-69
2023/12/28 08:29:48;;;;;;;55.90;34.28;;;;;;;2.41;77.14;95863.66;5001342;28;20454;-69
2023/12/28 08:32:13;;;;;;;50.92;29.98;;;;;;;2.78;76.82;95880.31;4974936;28;20177;-70
2023/12/28 08:34:39;;;;;;;50.10;28.85;;;;;;;2.91;76.67;95882.41;5007624;28;20034;-70
2023/12/28 08:37:04;;;;;;;27.67;16.38;;;;;;;3.15;75.16;95885.00;5007393;28;20280;-71
2023/12/28 08:39:30;;;;;;;26.05;15.05;;;;;;;3.31;74.81;95882.66;4983793;28;20041;-69
2023/12/28 08:41:55;;;;;;;20.63;11.95;;;;;;;3.51;73.75;95876.78;4998705;28;20041;-69
2023/12/28 08:44:21;;;;;;;32.25;17.88;;;;;;;3.70;73.17;95879.47;5008418;28;20022;-69
2023/12/28 08:46:46;;;;;;;29.85;19.13;;;;;;;3.73;73.98;95877.66;5006231;28;20034;-69
2023/12/28 08:49:12;;;;;;;28.58;18.48;;;;;;;3.99;73.75;95868.91;5009078;28;20075;-71
2023/12/28 08:51:37;;;;;;;27.63;17.38;;;;;;;4.10;73.74;95865.06;5012051;28;20034;-69
2023/12/28 08:54:03;;;;;;;29.50;18.73;;;;;;;3.92;74.42;95857.16;5011212;28;20038;-69
2023/12/28 08:56:29;;;;;;;30.35;18.45;;;;;;;4.19;73.90;95859.53;5009789;28;20356;-69
2023/12/28 08:58:54;;;;;;;32.42;18.67;;;;;;;4.46;72.60;95850.66;5010520;28;20118;-69
2023/12/28 09:01:25;;;;;;;26.13;17.25;;;;;;;4.38;73.16;95845.00;5011700;28;20030;-70
2023/12/28 09:03:50;;;;;;;27.05;18.10;;;;;;;4.52;73.69;95835.88;4994997;28;20044;-70
2023/12/28 09:06:16;;;;;;;26.38;17.83;;;;;;;4.67;72.62;95835.19;5010042;28;20480;-71
2023/12/28 09:08:47;;;;;;;28.38;17.30;;;;;;;4.87;72.49;95847.19;5007841;28;20072;-71
2023/12/28 09:11:13;;;;;;;23.77;16.58;;;;;;;4.78;72.17;95827.00;4999663;28;20026;-70
2023/12/28 09:13:39;;;;;;;32.13;19.98;;;;;;;4.66;73.04;95842.09;5009862;28;20478;-69
2023/12/28 09:16:05;;;;;;;28.90;18.27;;;;;;;4.48;73.84;95832.56;5000869;28;22108;-70
2023/12/28 09:18:31;;;;;;;27.08;17.75;;;;;;;4.49;74.03;95836.84;5008629;28;20109;-69
2023/12/28 09:20:56;;;;;;;29.00;17.88;;;;;;;4.45;74.59;95838.69;5006905;28;20037;-67
2023/12/28 09:23:21;;;;;;;25.60;17.05;;;;;;;4.43;74.82;95830.22;4986064;28;20423;-70
2023/12/28 09:25:47;;;;;;;27.05;17.65;;;;;;;4.52;74.79;95830.72;4993271;28;20032;-69
2023/12/28 09:28:13;;;;;;;27.50;16.90;;;;;;;4.48;74.14;95810.28;4998176;28;20044;-68
2023/12/28 09:30:38;;;;;;;29.60;18.27;;;;;;;4.94;73.25;95817.72;5002558;28;20021;-68
2023/12/28 09:33:04;;;;;;;27.40;17.90;;;;;;;5.03;72.73;95809.56;5006293;28;20072;-67
2023/12/28 09:35:29;;;;;;;23.92;15.95;;;;;;;4.92;72.90;95804.88;5006928;28;20030;-68
2023/12/28 09:37:56;;;;;;;29.88;18.17;;;;;;;5.03;73.28;95801.84;4987646;28;20037;-68
2023/12/28 09:40:21;;;;;;;28.88;18.48;;;;;;;4.99;73.25;95794.34;5005073;28;20524;-68
2023/12/28 09:42:57;;;;;;;29.40;19.33;;;;;;;5.02;73.31;95799.34;5005768;28;20034;-67
2023/12/28 09:45:22;;;;;;;30.00;18.65;;;;;;;5.05;73.79;95801.78;4990110;28;20044;-69
2023/12/28 09:47:50;;;;;;;30.95;19.48;;;;;;;5.25;73.17;95801.69;5003607;28;20034;-69
2023/12/28 09:50:16;;;;;;;29.88;18.08;;;;;;;5.42;72.28;95785.44;5008447;28;20034;-70
2023/12/28 09:52:41;;;;;;;27.27;19.35;;;;;;;5.53;71.52;95772.88;4992420;28;20037;-70
2023/12/28 09:55:08;;;;;;;32.35;19.35;;;;;;;5.61;71.51;95775.09;5003533;28;20472;-70
2023/12/28 09:57:33;;;;;;;31.60;23.90;;;;;;;5.76;71.71;95781.25;4993394;28;20046;-70
2023/12/28 09:59:59;;;;;;;28.33;18.08;;;;;;;5.82;70.83;95775.78;4992557;28;20033;-76
2023/12/28 10:02:24;;;;;;;26.67;18.13;;;;;;;5.71;71.60;95760.00;4989480;28;20057;-69
2023/12/28 10:04:50;;;;;;;25.85;18.13;;;;;;;5.72;71.98;95762.53;4994042;28;20022;-70
2023/12/28 10:07:15;;;;;;;25.85;17.42;;;;;;;5.69;71.96;95754.94;5006535;28;20045;-69
2023/12/28 10:09:40;;;;;;;23.88;16.58;;;;;;;5.97;71.23;95756.19;5009445;28;20022;-70
2023/12/28 10:12:06;;;;;;;25.02;17.27;;;;;;;5.99;71.59;95746.63;5009751;28;20030;-69
2023/12/28 10:14:32;;;;;;;27.65;17.60;;;;;;;6.15;70.78;95739.78;4966036;28;20045;-69
2023/12/28 10:16:57;;;;;;;25.50;17.05;;;;;;;6.12;71.63;95746.84;5008829;28;20548;-69
2023/12/28 10:19:23;;;;;;;29.60;18.08;;;;;;;6.28;70.84;95740.00;5010347;28;20026;-69
2023/12/28 10:21:49;;;;;;;29.13;19.45;;;;;;;6.45;70.62;95732.22;4993083;28;20076;-68
2023/12/28 10:24:14;;;;;;;29.13;20.23;;;;;;;6.31;70.25;95702.88;5007820;28;20038;-68
2023/12/28 10:26:43;;;;;;;32.42;21.13;;;;;;;6.48;70.38;95731.22;5009035;28;20021;-66
2023/12/28 10:29:08;;;;;;;31.95;20.48;;;;;;;6.39;70.50;95724.81;5005899;28;20551;-65
2023/12/28 10:31:34;;;;;;;26.90;19.65;;;;;;;6.28;70.40;95719.38;5009869;28;20061;-66
2023/12/28 10:34:03;;;;;;;27.50;17.55;;;;;;;6.51;70.17;95713.00;5008224;28;20026;-66
2023/12/28 10:36:28;;;;;;;26.95;18.40;;;;;;;6.84;68.74;95702.63;5010347;28;20038;-66
2023/12/28 10:38:54;;;;;;;27.40;16.73;;;;;;;6.59;68.43;95705.69;5009736;28;20042;-66
2023/12/28 10:41:20;;;;;;;27.23;18.75;;;;;;;6.72;68.33;95700.72;4990781;28;20409;-67
2023/12/28 10:43:46;;;;;;;28.08;18.83;;;;;;;6.82;68.23;95685.53;5005895;28;20452;-65
2023/12/28 10:46:32;;;;;;;30.58;19.75;;;;;;;6.92;68.00;95681.56;5007885;28;20036;-70
2023/12/28 10:48:59;;;;;;;30.88;18.83;;;;;;;7.11;67.16;95669.28;5005986;28;20046;-69
2023/12/28 10:51:27;;;;;;;28.13;18.05;;;;;;;7.30;66.51;95663.94;4986965;28;20111;-70
2023/12/28 10:54:07;;;;;;;27.90;18.67;;;;;;;7.26;67.36;95661.59;4990394;28;20089;-70
2023/12/28 10:56:38;;;;;;;28.97;19.03;;;;;;;7.18;67.84;95653.44;4993365;28;20026;-70
2023/12/28 10:59:31;;;;;;;33.40;18.10;;;;;;;7.03;68.50;95658.53;4990407;28;20460;-70
2023/12/28 11:01:57;;;;;;;27.98;19.48;;;;;;;6.94;68.67;95638.41;5010916;28;20117;-69
2023/12/28 11:04:37;;;;;;;25.90;18.05;;;;;;;7.20;67.85;95636.09;5012919;28;20526;-69
2023/12/28 11:07:02;;;;;;;26.17;16.50;;;;;;;7.14;68.01;95625.19;5007769;28;20025;-70
2023/12/28 11:09:30;;;;;;;26.83;19.10;;;;;;;7.35;67.93;95637.81;4993112;28;20543;-70
2023/12/28 11:11:55;;;;;;;28.60;18.77;;;;;;;7.49;67.46;95630.09;4990947;28;20034;-71
2023/12/28 11:14:21;;;;;;;32.75;18.23;;;;;;;7.30;67.30;95598.44;4996686;28;20311;-70
2023/12/28 11:16:46;;;;;;;30.70;17.38;;;;;;;7.48;67.52;95622.44;5011904;28;20200;-70
2023/12/28 11:19:12;;;;;;;23.73;16.80;;;;;;;7.43;67.43;95630.44;4980145;28;20030;-70
2023/12/28 11:21:37;;;;;;;22.63;16.05;;;;;;;7.30;67.57;95611.38;5012751;28;20030;-70
2023/12/28 11:24:02;;;;;;;23.35;16.48;;;;;;;7.42;67.34;95621.03;5012880;28;20057;-71
2023/12/28 11:26:28;;;;;;;22.42;15.35;;;;;;;7.68;66.52;95608.34;4996321;28;20053;-71